Aérodrome :
LOGIN :

S'inscrire | Disclaimer

   EN    FR    IT 

 










Légende :    VFR   VFR Marginal   IFR   IFR Intensif   IFR Très Intensif
Visi : 
Plafond : 
>= 8 km
>= 3000ft
5 à 8 km
1000 à 3000 ft
1500m à 5 km
500 à 1000 ft
800 à 1500m
200 à 500 ft
< 800m
< 200 ft
Symboles :   Orages  Brouillard  Fortes neiges  Fortes précipitations  Vent > 20 kt
SIGMETs :   Divers  Orages  Givrage  Turbulence  Onde Orograph.  Cendres Volcan.






- Altitude de l'aérodrome : 143 ft
- Code IATA : VDP


EKVD - Kolding Vamdrup

DERNIER METAR :
  • 171150Z 24030G46KT 9999 BKN027 08/03 Q1000

METARs EXPIRÉS :
  • 171050Z 24032G44KT 9999 BKN023 08/03 Q1000
  • 170950Z 24031G42KT 9999 BKN020 07/03 Q0999

TAF TAF EKVD
Valide du 17 à 12h jusqu'au 17 à 17h UTC


171158Z 1712/1717 23025G35KT 9999 BKN020
TEMPO 1712/1715 24028G45KT SHRA SCT020CB
TEMPO 1715/1717 24020KT FEW020CB



MET'MAP, la Météo Aéronautique d'un coup d'oeil ! - Copyright ORBIFLY Décembre 2007 - Disclaimer

ORBIFLY MET'MAP TEAM :

Programmation & Développement : Alexandra Zaïnal
Sur une idée originale de : Baudouin d'Aumeries
Assistance à la programmation : Marc-Olivier Méhu
Soutien technique & logistique : Manuel Goepfert

Contact : metmap@orbifly.com




SOURCES & CREDITS :

   NOAA